Time;durP1;ratioP1;P1;durP2;ratioP2;P2;SDS_P1;SDS_P2;PMS_P1;PMS_P2;Temp;Humidity;BMP_temperature;BMP_pressure;BME280_temperature;BME280_humidity;BME280_pressure;Samples;Min_cycle;Max_cycle;Signal;HPM_P1;HPM_P2
2021/11/19 00:00:49;;;;;;;0.10;0.10;;;;;;;;;;4179909;28;20063;-49
2021/11/19 00:02:50;;;;;;;0.10;0.10;;;;;;;;;;4179787;28;20056;-46
2021/11/19 00:04:52;;;;;;;0.10;0.10;;;;;;;;;;4179940;28;20119;-45
2021/11/19 00:06:54;;;;;;;1.63;0.10;;;;;;;;;;4179825;28;20125;-47
2021/11/19 00:08:56;;;;;;;0.10;0.10;;;;;;;;;;4179393;28;20469;-50
2021/11/19 00:11:01;;;;;;;0.35;0.10;;;;;;;;;;4179958;28;20060;-47
2021/11/19 00:13:03;;;;;;;0.55;0.10;;;;;;;;;;4179722;28;20420;-47
2021/11/19 00:15:09;;;;;;;0.10;0.10;;;;;;;;;;4162199;28;20057;-51
2021/11/19 00:17:12;;;;;;;0.20;0.10;;;;;;;;;;4179743;28;20083;-48
2021/11/19 00:19:14;;;;;;;0.57;0.17;;;;;;;;;;4179827;28;20056;-50
2021/11/19 00:21:15;;;;;;;0.25;0.10;;;;;;;;;;4179719;28;20068;-51
2021/11/19 00:23:18;;;;;;;0.20;0.20;;;;;;;;;;4179309;28;20053;-49
2021/11/19 00:25:22;;;;;;;0.10;0.10;;;;;;;;;;4179845;28;20056;-50
2021/11/19 00:27:25;;;;;;;0.20;0.10;;;;;;;;;;4179812;28;20049;-47
2021/11/19 00:29:28;;;;;;;0.30;0.10;;;;;;;;;;4179766;28;20061;-46
2021/11/19 00:31:30;;;;;;;0.10;0.10;;;;;;;;;;4179754;28;20460;-50
2021/11/19 00:33:37;;;;;;;0.17;0.00;;;;;;;;;;4179717;28;20053;-48
2021/11/19 00:35:42;;;;;;;0.10;0.00;;;;;;;;;;4179545;28;20098;-50
2021/11/19 00:37:53;;;;;;;0.10;0.10;;;;;;;;;;4179314;28;20072;-51
2021/11/19 00:39:56;;;;;;;0.10;0.05;;;;;;;;;;4180006;28;20099;-49
2021/11/19 00:42:05;;;;;;;0.82;0.17;;;;;;;;;;4179808;28;20053;-49
2021/11/19 00:44:10;;;;;;;0.43;0.25;;;;;;;;;;4181640;28;20382;-47
2021/11/19 00:46:15;;;;;;;0.10;0.10;;;;;;;;;;4182802;28;20057;-50
2021/11/19 00:48:19;;;;;;;0.10;0.10;;;;;;;;;;4181376;28;20440;-50
2021/11/19 00:50:31;;;;;;;0.40;0.15;;;;;;;;;;4165367;28;20057;-47
2021/11/19 00:52:37;;;;;;;0.30;0.10;;;;;;;;;;4182145;28;20118;-48
2021/11/19 00:54:42;;;;;;;0.38;0.20;;;;;;;;;;4165345;28;20107;-48
2021/11/19 00:56:53;;;;;;;0.10;0.10;;;;;;;;;;4182719;28;20048;-47
2021/11/19 00:58:57;;;;;;;0.10;0.10;;;;;;;;;;4182589;28;20057;-50
2021/11/19 01:01:10;;;;;;;0.00;0.00;;;;;;;;;;4181321;28;20416;-46
2021/11/19 01:03:13;;;;;;;0.10;0.03;;;;;;;;;;4164899;28;20060;-49
2021/11/19 01:05:15;;;;;;;0.17;0.10;;;;;;;;;;4182582;28;20053;-46
2021/11/19 01:07:19;;;;;;;0.47;0.13;;;;;;;;;;4181217;28;20048;-47
2021/11/19 01:09:23;;;;;;;0.52;0.15;;;;;;;;;;4170741;28;20056;-49
2021/11/19 01:11:26;;;;;;;0.10;0.10;;;;;;;;;;4181344;28;20057;-48
2021/11/19 01:13:29;;;;;;;0.17;0.10;;;;;;;;;;4181044;28;20057;-46
2021/11/19 01:15:34;;;;;;;0.10;0.10;;;;;;;;;;4182292;28;20605;-52
2021/11/19 01:17:41;;;;;;;0.35;0.10;;;;;;;;;;4164447;28;20441;-48
2021/11/19 01:19:47;;;;;;;0.47;0.20;;;;;;;;;;4170449;28;20057;-48
2021/11/19 01:21:57;;;;;;;0.00;0.00;;;;;;;;;;4175818;28;20056;-47
2021/11/19 01:24:00;;;;;;;0.10;0.10;;;;;;;;;;4164173;28;20092;-47
2021/11/19 01:26:15;;;;;;;0.10;0.10;;;;;;;;;;4164583;28;20057;-49
2021/11/19 01:28:20;;;;;;;0.10;0.10;;;;;;;;;;4148282;28;20203;-48
2021/11/19 01:30:27;;;;;;;0.10;0.00;;;;;;;;;;4180826;28;20056;-46
2021/11/19 01:32:29;;;;;;;0.10;0.10;;;;;;;;;;4164326;28;20057;-51
2021/11/19 01:34:46;;;;;;;0.20;0.10;;;;;;;;;;4181133;28;20057;-48
2021/11/19 01:37:08;;;;;;;0.47;0.20;;;;;;;;;;4181440;28;20065;-49
2021/11/19 01:39:32;;;;;;;0.05;0.00;;;;;;;;;;4180443;28;20053;-48
2021/11/19 01:42:30;;;;;;;0.10;0.10;;;;;;;;;;4181865;28;20056;-50
2021/11/19 01:44:36;;;;;;;0.10;0.10;;;;;;;;;;4164330;28;20053;-50
2021/11/19 01:46:43;;;;;;;0.32;0.10;;;;;;;;;;4164286;28;20442;-48
2021/11/19 01:48:47;;;;;;;0.20;0.10;;;;;;;;;;4181982;28;20802;-47
2021/11/19 01:51:15;;;;;;;0.00;0.00;;;;;;;;;;4181001;28;20057;-49
2021/11/19 01:53:27;;;;;;;0.08;0.05;;;;;;;;;;4162878;28;20061;-49
2021/11/19 01:55:45;;;;;;;0.10;0.05;;;;;;;;;;4131435;28;20054;-47
2021/11/19 01:58:09;;;;;;;0.00;0.00;;;;;;;;;;4165075;28;20490;-50
2021/11/19 02:00:13;;;;;;;0.20;0.10;;;;;;;;;;4131518;28;20061;-46
2021/11/19 02:02:23;;;;;;;0.00;0.00;;;;;;;;;;4165276;28;20062;-48
2021/11/19 02:04:38;;;;;;;0.20;0.10;;;;;;;;;;4163871;28;20061;-52
2021/11/19 02:06:46;;;;;;;0.10;0.10;;;;;;;;;;4147605;28;20057;-50
2021/11/19 02:09:44;;;;;;;0.52;0.20;;;;;;;;;;4164573;28;20559;-50
2021/11/19 02:12:06;;;;;;;0.25;0.10;;;;;;;;;;4127254;28;20141;-50
2021/11/19 02:14:19;;;;;;;0.10;0.10;;;;;;;;;;4147571;28;20123;-46
2021/11/19 02:16:24;;;;;;;0.00;0.00;;;;;;;;;;4147554;28;20108;-46
2021/11/19 02:18:33;;;;;;;0.50;0.20;;;;;;;;;;4147208;28;20128;-49
2021/11/19 02:20:40;;;;;;;0.10;0.10;;;;;;;;;;4148555;28;20107;-49
2021/11/19 02:22:51;;;;;;;0.13;0.00;;;;;;;;;;4163178;28;20074;-49
2021/11/19 02:24:56;;;;;;;0.10;0.10;;;;;;;;;;4147482;28;20054;-47
2021/11/19 02:27:12;;;;;;;0.00;0.00;;;;;;;;;;4147970;28;20061;-49
2021/11/19 02:29:14;;;;;;;0.10;0.10;;;;;;;;;;4147408;28;20164;-49
2021/11/19 02:31:17;;;;;;;0.32;0.10;;;;;;;;;;4163721;28;20176;-45
2021/11/19 02:33:19;;;;;;;0.13;0.08;;;;;;;;;;4179798;28;20091;-47
2021/11/19 02:35:28;;;;;;;0.35;0.20;;;;;;;;;;4163355;28;20053;-49
2021/11/19 02:37:33;;;;;;;0.10;0.10;;;;;;;;;;4179479;28;20053;-46
2021/11/19 02:39:39;;;;;;;0.40;0.30;;;;;;;;;;4147137;28;20411;-50
2021/11/19 02:41:46;;;;;;;0.10;0.10;;;;;;;;;;4163519;28;20053;-48
2021/11/19 02:43:57;;;;;;;0.10;0.10;;;;;;;;;;4179959;28;20074;-49
2021/11/19 02:45:59;;;;;;;0.10;0.10;;;;;;;;;;4163330;28;20061;-46
2021/11/19 02:48:00;;;;;;;0.10;0.10;;;;;;;;;;4179648;28;20584;-48
2021/11/19 02:50:03;;;;;;;0.10;0.10;;;;;;;;;;4163124;28;20064;-46
2021/11/19 02:52:08;;;;;;;0.08;0.08;;;;;;;;;;4163405;28;20057;-45
2021/11/19 02:54:12;;;;;;;0.38;0.10;;;;;;;;;;4162575;28;20065;-47
2021/11/19 02:56:14;;;;;;;0.05;0.00;;;;;;;;;;4163136;28;20203;-46
2021/11/19 02:58:25;;;;;;;0.17;0.03;;;;;;;;;;4163285;28;20366;-51
2021/11/19 03:00:33;;;;;;;0.15;0.15;;;;;;;;;;4163362;28;20065;-49
2021/11/19 03:02:34;;;;;;;0.00;0.00;;;;;;;;;;4180742;28;20060;-46
2021/11/19 03:05:01;;;;;;;0.00;0.00;;;;;;;;;;4179420;28;20487;-49
2021/11/19 03:07:03;;;;;;;0.20;0.10;;;;;;;;;;4162941;28;20382;-49
2021/11/19 03:09:06;;;;;;;0.52;0.30;;;;;;;;;;4178802;28;20052;-47
2021/11/19 03:11:09;;;;;;;0.10;0.10;;;;;;;;;;4179322;28;20056;-45
2021/11/19 03:13:10;;;;;;;0.05;0.00;;;;;;;;;;4162770;28;20061;-46
2021/11/19 03:15:15;;;;;;;0.10;0.10;;;;;;;;;;4179642;28;20048;-48
2021/11/19 03:17:18;;;;;;;0.08;0.00;;;;;;;;;;4180458;28;20072;-47
2021/11/19 03:19:19;;;;;;;0.10;0.10;;;;;;;;;;4162761;28;20420;-48
2021/11/19 03:21:21;;;;;;;0.00;0.00;;;;;;;;;;4162706;28;20508;-47
2021/11/19 03:23:23;;;;;;;0.00;0.00;;;;;;;;;;4162516;28;20057;-46
2021/11/19 03:25:30;;;;;;;0.05;0.00;;;;;;;;;;4180661;28;20061;-47
2021/11/19 03:27:36;;;;;;;0.10;0.10;;;;;;;;;;4146267;28;20514;-46
2021/11/19 03:29:48;;;;;;;0.10;0.10;;;;;;;;;;4162743;28;20092;-49
2021/11/19 03:31:50;;;;;;;0.40;0.10;;;;;;;;;;4180417;28;20496;-49
2021/11/19 03:33:53;;;;;;;0.10;0.00;;;;;;;;;;4162406;28;20327;-47
2021/11/19 03:35:55;;;;;;;0.10;0.10;;;;;;;;;;4162683;28;20513;-46
2021/11/19 03:37:57;;;;;;;0.20;0.10;;;;;;;;;;4178718;28;20128;-47
2021/11/19 03:39:59;;;;;;;0.00;0.00;;;;;;;;;;4179152;28;20053;-46
2021/11/19 03:42:01;;;;;;;0.08;0.05;;;;;;;;;;4180040;28;20107;-46
2021/11/19 03:44:10;;;;;;;0.10;0.10;;;;;;;;;;4162427;28;20192;-46
2021/11/19 03:46:28;;;;;;;0.13;0.10;;;;;;;;;;4179076;28;20433;-48
2021/11/19 03:48:29;;;;;;;0.00;0.00;;;;;;;;;;4162450;28;20061;-46
2021/11/19 03:50:45;;;;;;;0.10;0.10;;;;;;;;;;4179120;28;20103;-47
2021/11/19 03:52:46;;;;;;;0.10;0.10;;;;;;;;;;4178405;28;20057;-47
2021/11/19 03:54:50;;;;;;;0.00;0.00;;;;;;;;;;4180397;28;20052;-49
2021/11/19 03:56:52;;;;;;;0.10;0.10;;;;;;;;;;4162341;28;20195;-47
2021/11/19 03:58:55;;;;;;;0.10;0.10;;;;;;;;;;4178764;28;20049;-49
2021/11/19 04:01:00;;;;;;;0.10;0.10;;;;;;;;;;4162402;28;20061;-48
2021/11/19 04:03:02;;;;;;;0.13;0.08;;;;;;;;;;4162353;28;20107;-48
2021/11/19 04:05:09;;;;;;;0.10;0.10;;;;;;;;;;4146130;28;20057;-52
2021/11/19 04:07:12;;;;;;;0.10;0.10;;;;;;;;;;4162264;28;20104;-51
2021/11/19 04:09:16;;;;;;;0.10;0.10;;;;;;;;;;4178708;28;20113;-48
2021/11/19 04:11:23;;;;;;;0.20;0.10;;;;;;;;;;4180043;28;20398;-50
2021/11/19 04:13:26;;;;;;;0.10;0.10;;;;;;;;;;4162468;28;20157;-49
2021/11/19 04:15:33;;;;;;;0.30;0.10;;;;;;;;;;4162620;28;20108;-48
2021/11/19 04:17:35;;;;;;;0.00;0.00;;;;;;;;;;4162095;28;20509;-48
2021/11/19 04:19:36;;;;;;;0.00;0.00;;;;;;;;;;4165279;28;20053;-47
2021/11/19 04:21:38;;;;;;;0.10;0.05;;;;;;;;;;4181869;28;20090;-46
2021/11/19 04:23:40;;;;;;;0.20;0.10;;;;;;;;;;4148861;28;20123;-50
2021/11/19 04:25:42;;;;;;;0.65;0.10;;;;;;;;;;4183055;28;20436;-49
2021/11/19 04:27:43;;;;;;;0.20;0.10;;;;;;;;;;4165246;28;20153;-45
2021/11/19 04:30:04;;;;;;;;;;;;;;;;;;4183957;28;20100;-49
2021/11/19 04:32:09;;;;;;;0.10;0.10;;;;;;;;;;4149145;28;20344;-46
2021/11/19 04:34:12;;;;;;;0.10;0.10;;;;;;;;;;4182966;28;20064;-50
2021/11/19 04:36:15;;;;;;;0.32;0.15;;;;;;;;;;4148945;28;20054;-48
2021/11/19 04:38:16;;;;;;;0.03;0.03;;;;;;;;;;4164773;28;20093;-51
2021/11/19 04:40:19;;;;;;;0.05;0.00;;;;;;;;;;4182738;28;20064;-51
2021/11/19 04:42:21;;;;;;;0.00;0.00;;;;;;;;;;4148961;28;20058;-51
2021/11/19 04:44:23;;;;;;;0.00;0.00;;;;;;;;;;4165116;28;20111;-48
2021/11/19 04:46:25;;;;;;;0.00;0.00;;;;;;;;;;4181777;28;20048;-51
2021/11/19 04:48:30;;;;;;;0.03;0.03;;;;;;;;;;4165052;28;20509;-46
2021/11/19 04:50:36;;;;;;;0.05;0.00;;;;;;;;;;4165259;28;20120;-48
2021/11/19 04:52:39;;;;;;;0.00;0.00;;;;;;;;;;4181044;28;20064;-49
2021/11/19 04:54:41;;;;;;;0.45;0.03;;;;;;;;;;4182696;28;20060;-48
2021/11/19 04:56:43;;;;;;;0.05;0.05;;;;;;;;;;4182471;28;20049;-49
2021/11/19 04:58:44;;;;;;;0.00;0.00;;;;;;;;;;4148399;28;20061;-48
2021/11/19 05:00:55;;;;;;;0.00;0.00;;;;;;;;;;4182651;28;20516;-51
2021/11/19 05:03:06;;;;;;;0.20;0.10;;;;;;;;;;4182489;28;20053;-50
2021/11/19 05:05:10;;;;;;;0.10;0.10;;;;;;;;;;4181194;28;20056;-49
2021/11/19 05:07:14;;;;;;;0.10;0.10;;;;;;;;;;4164691;28;20049;-48
2021/11/19 05:09:16;;;;;;;0.00;0.00;;;;;;;;;;4164231;28;20062;-51
2021/11/19 05:11:22;;;;;;;0.08;0.08;;;;;;;;;;4181195;28;20052;-50
2021/11/19 05:13:33;;;;;;;0.05;0.05;;;;;;;;;;4182455;28;20099;-48
2021/11/19 05:15:39;;;;;;;0.00;0.00;;;;;;;;;;4164950;28;20061;-48
2021/11/19 05:17:41;;;;;;;0.10;0.03;;;;;;;;;;4182241;28;20049;-48
2021/11/19 05:19:44;;;;;;;0.10;0.10;;;;;;;;;;4164534;28;20490;-46
2021/11/19 05:21:45;;;;;;;0.13;0.10;;;;;;;;;;4164590;28;20099;-48
2021/11/19 05:23:47;;;;;;;0.05;0.05;;;;;;;;;;4180558;28;20512;-46
2021/11/19 05:25:49;;;;;;;0.20;0.00;;;;;;;;;;4164542;28;20111;-49
2021/11/19 05:27:50;;;;;;;0.10;0.10;;;;;;;;;;4182051;28;20107;-47
2021/11/19 05:29:51;;;;;;;0.17;0.00;;;;;;;;;;4163401;28;20549;-47
2021/11/19 05:31:59;;;;;;;0.10;0.10;;;;;;;;;;4164639;28;20119;-46
2021/11/19 05:34:02;;;;;;;0.00;0.00;;;;;;;;;;4180970;28;20052;-52
2021/11/19 05:36:05;;;;;;;0.10;0.10;;;;;;;;;;4164507;28;20060;-48
2021/11/19 05:38:10;;;;;;;0.10;0.10;;;;;;;;;;4163925;28;20088;-48
2021/11/19 05:40:15;;;;;;;0.03;0.03;;;;;;;;;;4164222;28;20061;-48
2021/11/19 05:42:18;;;;;;;0.10;0.10;;;;;;;;;;4164304;28;20536;-49
2021/11/19 05:44:20;;;;;;;0.10;0.03;;;;;;;;;;4164297;28;20054;-48
2021/11/19 05:46:42;;;;;;;0.13;0.10;;;;;;;;;;4181861;28;20126;-46
2021/11/19 05:48:49;;;;;;;0.17;0.00;;;;;;;;;;4164085;28;20076;-51
2021/11/19 05:50:50;;;;;;;0.00;0.00;;;;;;;;;;4147972;28;20072;-49
2021/11/19 05:52:57;;;;;;;0.47;0.10;;;;;;;;;;4180253;28;20446;-50
2021/11/19 05:55:00;;;;;;;0.10;0.10;;;;;;;;;;4164221;28;20053;-47
2021/11/19 05:57:04;;;;;;;0.15;0.10;;;;;;;;;;4164261;28;20429;-48
2021/11/19 05:59:05;;;;;;;0.10;0.10;;;;;;;;;;4180687;28;20103;-49
2021/11/19 06:01:26;;;;;;;0.10;0.10;;;;;;;;;;4180858;28;20053;-46
2021/11/19 06:03:39;;;;;;;0.17;0.08;;;;;;;;;;4180373;28;20053;-46
2021/11/19 06:05:52;;;;;;;0.03;0.03;;;;;;;;;;4181773;28;20408;-50
2021/11/19 06:08:02;;;;;;;;;;;;;;;;;;4164122;28;20054;-49
2021/11/19 06:10:05;;;;;;;0.25;0.10;;;;;;;;;;4181563;28;20266;-45
2021/11/19 06:12:18;;;;;;;0.17;0.15;;;;;;;;;;4164845;28;20104;-50
2021/11/19 06:14:40;;;;;;;0.25;0.22;;;;;;;;;;4179264;28;20519;-48
2021/11/19 06:16:50;;;;;;;0.05;0.05;;;;;;;;;;4155231;28;20068;-50
2021/11/19 06:18:53;;;;;;;;;;;;;;;;;;4178899;28;20099;-47
2021/11/19 06:20:58;;;;;;;0.10;0.10;;;;;;;;;;4180905;28;20001;-47
2021/11/19 06:23:09;;;;;;;0.10;0.10;;;;;;;;;;4178563;28;20045;-47
2021/11/19 06:25:19;;;;;;;0.20;0.10;;;;;;;;;;4152320;28;20057;-47
2021/11/19 06:27:24;;;;;;;0.10;0.10;;;;;;;;;;4159737;28;20056;-48
2021/11/19 06:29:26;;;;;;;0.10;0.10;;;;;;;;;;4171699;28;20119;-48
2021/11/19 06:31:28;;;;;;;0.10;0.10;;;;;;;;;;4176929;28;20056;-48
2021/11/19 06:33:29;;;;;;;0.30;0.10;;;;;;;;;;4161390;28;20053;-47
2021/11/19 06:35:31;;;;;;;0.20;0.10;;;;;;;;;;4147127;28;20057;-49
2021/11/19 06:37:33;;;;;;;1.60;0.10;;;;;;;;;;4174345;28;20049;-48
2021/11/19 06:39:45;;;;;;;0.10;0.10;;;;;;;;;;4157179;28;20409;-45
2021/11/19 06:41:57;;;;;;;0.20;0.10;;;;;;;;;;4170126;28;20468;-50
2021/11/19 06:44:10;;;;;;;0.10;0.10;;;;;;;;;;4174570;28;20106;-48
2021/11/19 06:46:30;;;;;;;0.52;0.20;;;;;;;;;;4169769;28;20662;-48
2021/11/19 06:48:50;;;;;;;0.43;0.30;;;;;;;;;;4171968;28;20471;-49
2021/11/19 06:51:09;;;;;;;2.20;0.40;;;;;;;;;;4137705;28;20060;-47
2021/11/19 06:53:39;;;;;;;0.30;0.30;;;;;;;;;;4150294;28;20107;-48
2021/11/19 06:56:07;;;;;;;0.73;0.45;;;;;;;;;;4156723;28;20061;-46
2021/11/19 06:58:20;;;;;;;1.33;0.63;;;;;;;;;;4158948;28;20460;-51
2021/11/19 07:00:31;;;;;;;1.20;0.85;;;;;;;;;;4168078;28;20053;-48
2021/11/19 07:02:33;;;;;;;1.58;0.40;;;;;;;;;;4170776;28;20428;-49
2021/11/19 07:04:34;;;;;;;2.25;1.00;;;;;;;;;;4158694;28;20123;-49
2021/11/19 07:06:36;;;;;;;1.80;0.80;;;;;;;;;;4176149;28;20111;-46
2021/11/19 07:08:38;;;;;;;1.48;0.70;;;;;;;;;;4173450;28;20056;-50
2021/11/19 07:10:43;;;;;;;2.28;0.77;;;;;;;;;;4169216;28;20158;-51
2021/11/19 07:12:44;;;;;;;2.08;0.82;;;;;;;;;;4166292;28;20108;-51
2021/11/19 07:14:46;;;;;;;0.90;0.60;;;;;;;;;;4160467;28;20107;-46
2021/11/19 07:16:48;;;;;;;3.70;0.80;;;;;;;;;;4157786;28;20128;-50
2021/11/19 07:18:53;;;;;;;1.80;0.80;;;;;;;;;;4174247;28;20053;-50
2021/11/19 07:20:55;;;;;;;1.50;0.80;;;;;;;;;;4171355;28;20057;-50
2021/11/19 07:22:58;;;;;;;1.88;0.70;;;;;;;;;;4152825;28;20049;-45
2021/11/19 07:24:59;;;;;;;1.05;0.70;;;;;;;;;;4166805;28;20053;-46
2021/11/19 07:27:01;;;;;;;1.27;0.73;;;;;;;;;;4170238;28;20057;-49
2021/11/19 07:29:04;;;;;;;1.70;0.68;;;;;;;;;;4165968;28;20777;-47
2021/11/19 07:31:28;;;;;;;0.73;0.43;;;;;;;;;;4148689;28;20122;-45
2021/11/19 07:33:55;;;;;;;1.35;0.90;;;;;;;;;;4146416;28;20420;-47
2021/11/19 07:36:07;;;;;;;1.63;0.77;;;;;;;;;;4153275;28;20580;-48
2021/11/19 07:38:28;;;;;;;0.57;0.40;;;;;;;;;;4154891;28;20053;-47
2021/11/19 07:40:54;;;;;;;1.15;0.45;;;;;;;;;;4171864;28;20084;-51
2021/11/19 07:43:05;;;;;;;0.85;0.60;;;;;;;;;;4167556;28;20524;-51
2021/11/19 07:45:20;;;;;;;2.25;0.43;;;;;;;;;;4157905;28;20537;-52
2021/11/19 07:47:42;;;;;;;1.15;0.50;;;;;;;;;;4156284;28;20099;-45
2021/11/19 07:49:44;;;;;;;1.73;0.70;;;;;;;;;;4159752;28;20452;-49
2021/11/19 07:51:52;;;;;;;0.82;0.50;;;;;;;;;;4157479;28;20462;-49
2021/11/19 07:53:55;;;;;;;0.65;0.43;;;;;;;;;;4169528;28;20118;-50
2021/11/19 07:55:57;;;;;;;0.95;0.40;;;;;;;;;;4170837;28;20106;-47
2021/11/19 07:58:00;;;;;;;0.98;0.50;;;;;;;;;;4152961;28;20398;-46
2021/11/19 08:00:08;;;;;;;0.90;0.60;;;;;;;;;;4169068;28;20449;-48
2021/11/19 08:02:19;;;;;;;1.27;0.40;;;;;;;;;;4169218;28;20102;-45
2021/11/19 08:04:21;;;;;;;0.77;0.40;;;;;;;;;;4165463;28;20054;-48
2021/11/19 08:06:27;;;;;;;0.98;0.30;;;;;;;;;;4158437;28;20168;-47
2021/11/19 08:08:49;;;;;;;0.80;0.40;;;;;;;;;;4168005;28;20144;-46
2021/11/19 08:10:54;;;;;;;1.30;0.40;;;;;;;;;;4160424;28;20091;-48
2021/11/19 08:12:55;;;;;;;1.77;0.50;;;;;;;;;;4151402;28;20061;-49
2021/11/19 08:15:00;;;;;;;1.90;0.68;;;;;;;;;;4145705;28;20057;-48
2021/11/19 08:17:10;;;;;;;1.95;0.50;;;;;;;;;;4165264;28;20390;-48
2021/11/19 08:19:27;;;;;;;1.90;0.35;;;;;;;;;;4137205;28;20418;-49
2021/11/19 08:21:29;;;;;;;0.70;0.45;;;;;;;;;;4149190;28;20088;-46
2021/11/19 08:23:34;;;;;;;0.85;0.45;;;;;;;;;;4167221;28;20493;-49
2021/11/19 08:25:36;;;;;;;0.40;0.20;;;;;;;;;;4166261;28;20099;-47
2021/11/19 08:27:42;;;;;;;0.80;0.50;;;;;;;;;;4166816;28;20386;-46
2021/11/19 08:29:46;;;;;;;0.43;0.30;;;;;;;;;;4155900;28;20485;-47
2021/11/19 08:31:48;;;;;;;1.95;0.55;;;;;;;;;;4165373;28;20053;-46
2021/11/19 08:33:50;;;;;;;1.75;0.50;;;;;;;;;;4164428;28;20065;-49
2021/11/19 08:35:51;;;;;;;2.92;0.52;;;;;;;;;;4151380;28;20054;-47
2021/11/19 08:37:54;;;;;;;0.40;0.35;;;;;;;;;;4169944;28;20102;-46
2021/11/19 08:39:55;;;;;;;1.20;0.50;;;;;;;;;;4169689;28;20053;-48
2021/11/19 08:41:57;;;;;;;0.70;0.38;;;;;;;;;;4163831;28;20060;-47
2021/11/19 08:43:59;;;;;;;0.82;0.20;;;;;;;;;;4168709;28;20352;-46
2021/11/19 08:46:03;;;;;;;0.70;0.30;;;;;;;;;;4169683;28;20174;-50
2021/11/19 08:48:04;;;;;;;0.40;0.30;;;;;;;;;;4149497;28;20057;-50
2021/11/19 08:50:08;;;;;;;2.00;0.50;;;;;;;;;;4169020;28;20508;-50
2021/11/19 08:52:12;;;;;;;1.48;0.60;;;;;;;;;;4175443;28;20072;-49
2021/11/19 08:54:16;;;;;;;5.38;1.33;;;;;;;;;;4165946;28;20382;-47
2021/11/19 08:56:18;;;;;;;4.28;1.10;;;;;;;;;;4160911;28;20122;-45
2021/11/19 08:58:24;;;;;;;5.32;1.67;;;;;;;;;;4168332;28;20065;-48
2021/11/19 09:00:35;;;;;;;2.72;1.02;;;;;;;;;;4163670;28;20374;-45
2021/11/19 09:02:37;;;;;;;4.18;1.42;;;;;;;;;;4164297;28;20083;-48
2021/11/19 09:04:38;;;;;;;6.90;1.63;;;;;;;;;;4160776;28;20053;-42
2021/11/19 09:06:40;;;;;;;5.70;1.52;;;;;;;;;;4168861;28;20374;-51
2021/11/19 09:08:42;;;;;;;3.58;1.13;;;;;;;;;;4170385;28;20053;-47
2021/11/19 09:10:45;;;;;;;3.75;1.27;;;;;;;;;;4173299;28;20095;-46
2021/11/19 09:12:48;;;;;;;4.43;0.90;;;;;;;;;;4165577;28;20069;-48
2021/11/19 09:14:49;;;;;;;5.78;0.98;;;;;;;;;;4171750;28;20053;-50
2021/11/19 09:17:15;;;;;;;4.45;1.10;;;;;;;;;;4174753;28;20117;-47
2021/11/19 09:19:38;;;;;;;7.00;1.58;;;;;;;;;;4172230;28;20061;-42
2021/11/19 09:21:47;;;;;;;10.82;2.17;;;;;;;;;;4173240;28;20075;-44
2021/11/19 09:23:55;;;;;;;9.02;2.35;;;;;;;;;;4167805;28;20095;-44
2021/11/19 09:25:59;;;;;;;13.10;3.15;;;;;;;;;;4171997;28;20117;-43
2021/11/19 09:28:01;;;;;;;11.25;2.35;;;;;;;;;;4156284;28;20053;-44
2021/11/19 09:30:14;;;;;;;9.68;2.88;;;;;;;;;;4168803;28;20099;-46
2021/11/19 09:32:17;;;;;;;18.17;3.20;;;;;;;;;;4170471;28;20103;-44
2021/11/19 09:34:19;;;;;;;9.15;2.28;;;;;;;;;;4172094;28;20394;-45
2021/11/19 09:36:20;;;;;;;8.40;2.75;;;;;;;;;;4168373;28;20116;-44
2021/11/19 09:38:23;;;;;;;6.35;2.22;;;;;;;;;;4173529;28;20049;-43
2021/11/19 09:40:28;;;;;;;10.13;2.17;;;;;;;;;;4179612;28;20378;-44
2021/11/19 09:42:35;;;;;;;9.15;2.40;;;;;;;;;;4166468;28;20473;-41
2021/11/19 09:44:58;;;;;;;7.60;3.00;;;;;;;;;;4153204;28;20053;-43
2021/11/19 09:47:33;;;;;;;7.45;2.75;;;;;;;;;;4164186;28;20061;-43
2021/11/19 09:49:57;;;;;;;6.40;2.55;;;;;;;;;;4173499;28;20049;-45
2021/11/19 09:52:35;;;;;;;6.68;2.17;;;;;;;;;;4159143;28;20126;-49
2021/11/19 09:54:59;;;;;;;4.65;1.85;;;;;;;;;;4169277;28;20055;-46
2021/11/19 09:57:12;;;;;;;9.10;2.35;;;;;;;;;;4174099;28;20053;-45
2021/11/19 09:59:43;;;;;;;9.40;2.20;;;;;;;;;;4167492;28;20060;-43
2021/11/19 10:02:09;;;;;;;8.10;1.73;;;;;;;;;;4167129;28;20057;-44
2021/11/19 10:04:19;;;;;;;9.57;2.10;;;;;;;;;;4155554;28;20387;-45
2021/11/19 10:06:31;;;;;;;6.85;2.13;;;;;;;;;;4167368;28;20048;-42
2021/11/19 10:08:31;;;;;;;5.00;1.60;;;;;;;;;;4155741;28;20057;-44
2021/11/19 10:10:39;;;;;;;4.40;1.88;;;;;;;;;;4165223;28;20247;-48
2021/11/19 10:13:14;;;;;;;4.10;1.77;;;;;;;;;;4156232;28;20115;-44
2021/11/19 10:15:50;;;;;;;5.82;1.45;;;;;;;;;;4170406;28;20053;-47
2021/11/19 10:18:13;;;;;;;5.95;1.50;;;;;;;;;;4153676;28;20066;-43
2021/11/19 10:20:25;;;;;;;5.32;1.45;;;;;;;;;;4156024;28;20096;-44
2021/11/19 10:22:27;;;;;;;6.75;1.95;;;;;;;;;;4152163;28;20100;-43
2021/11/19 10:24:40;;;;;;;6.22;2.10;;;;;;;;;;4171151;28;20065;-44
2021/11/19 10:26:42;;;;;;;6.15;1.85;;;;;;;;;;4164899;28;20061;-45
2021/11/19 10:28:48;;;;;;;5.57;1.67;;;;;;;;;;4170803;28;20063;-47
2021/11/19 10:30:52;;;;;;;9.27;2.60;;;;;;;;;;4155783;28;20065;-44
2021/11/19 10:32:59;;;;;;;6.53;1.70;;;;;;;;;;4156063;28;20046;-46
2021/11/19 10:35:08;;;;;;;4.60;1.50;;;;;;;;;;4151346;28;20057;-47
2021/11/19 10:37:19;;;;;;;6.22;1.67;;;;;;;;;;4168088;28;20060;-49
2021/11/19 10:39:35;;;;;;;5.03;2.17;;;;;;;;;;4176680;28;20057;-44
2021/11/19 10:42:13;;;;;;;6.80;1.65;;;;;;;;;;4174427;28;20071;-49
2021/11/19 10:44:45;;;;;;;4.82;1.80;;;;;;;;;;4166078;28;20053;-45
2021/11/19 10:47:17;;;;;;;5.80;1.60;;;;;;;;;;4171630;28;20351;-44
2021/11/19 10:49:38;;;;;;;5.55;1.70;;;;;;;;;;4168239;28;20171;-46
2021/11/19 10:51:56;;;;;;;4.63;1.42;;;;;;;;;;4157173;28;20069;-47
2021/11/19 10:54:18;;;;;;;4.47;1.60;;;;;;;;;;4170082;28;20056;-45
2021/11/19 10:56:33;;;;;;;6.65;2.42;;;;;;;;;;4167435;28;20062;-44
2021/11/19 10:58:45;;;;;;;3.15;1.17;;;;;;;;;;4146300;28;20603;-45
2021/11/19 11:00:58;;;;;;;3.35;1.42;;;;;;;;;;4162526;28;20531;-45
2021/11/19 11:03:09;;;;;;;5.80;1.70;;;;;;;;;;4170794;28;20048;-43
2021/11/19 11:05:27;;;;;;;3.83;1.67;;;;;;;;;;4168788;28;20339;-48
2021/11/19 11:07:30;;;;;;;7.70;1.70;;;;;;;;;;4161785;28;20111;-49
2021/11/19 11:09:39;;;;;;;3.78;1.50;;;;;;;;;;4164062;28;20158;-52
2021/11/19 11:11:40;;;;;;;5.82;1.40;;;;;;;;;;4164630;28;20049;-46
2021/11/19 11:14:00;;;;;;;7.20;1.95;;;;;;;;;;4171213;28;20068;-48
2021/11/19 11:16:04;;;;;;;;;;;;;;;;;;4149834;28;22156;-47
2021/11/19 11:18:11;;;;;;;3.50;1.33;;;;;;;;;;4153201;28;19929;-47
2021/11/19 11:20:26;;;;;;;2.00;1.00;;;;;;;;;;4164744;28;20071;-45
2021/11/19 11:22:32;;;;;;;3.92;1.50;;;;;;;;;;4146379;28;20096;-47
2021/11/19 11:25:05;;;;;;;2.65;1.20;;;;;;;;;;4167767;28;20057;-48
2021/11/19 11:27:11;;;;;;;5.20;1.70;;;;;;;;;;4164790;28;20113;-44
2021/11/19 11:29:18;;;;;;;5.28;1.50;;;;;;;;;;4165187;28;20060;-45
2021/11/19 11:31:43;;;;;;;5.20;1.40;;;;;;;;;;4168646;28;20061;-49
2021/11/19 11:33:57;;;;;;;8.50;2.13;;;;;;;;;;4148058;28;20119;-44
2021/11/19 11:36:13;;;;;;;3.88;1.40;;;;;;;;;;4169057;28;20053;-44
2021/11/19 11:38:17;;;;;;;4.07;1.40;;;;;;;;;;4166221;28;20050;-44
2021/11/19 11:40:27;;;;;;;7.63;2.08;;;;;;;;;;4150377;28;20591;-51
2021/11/19 11:42:38;;;;;;;7.35;1.80;;;;;;;;;;4178330;28;20052;-47
2021/11/19 11:44:46;;;;;;;4.85;1.58;;;;;;;;;;4166074;28;20065;-45
2021/11/19 11:47:18;;;;;;;7.43;1.30;;;;;;;;;;4172884;28;20063;-51
2021/11/19 11:49:31;;;;;;;4.82;1.10;;;;;;;;;;4156429;28;20060;-49
2021/11/19 11:51:50;;;;;;;2.20;1.00;;;;;;;;;;4148636;28;20054;-53
2021/11/19 11:54:17;;;;;;;3.43;1.10;;;;;;;;;;4154527;28;20077;-47
2021/11/19 11:56:36;;;;;;;3.03;0.95;;;;;;;;;;4167529;28;20131;-49
2021/11/19 11:58:46;;;;;;;4.18;1.42;;;;;;;;;;4166421;28;20057;-47
2021/11/19 12:00:57;;;;;;;3.30;1.10;;;;;;;;;;4163872;28;20519;-46
2021/11/19 12:03:23;;;;;;;2.83;0.98;;;;;;;;;;4143688;28;20722;-46
2021/11/19 12:05:38;;;;;;;4.45;1.05;;;;;;;;;;4163871;28;20500;-50
2021/11/19 12:08:07;;;;;;;1.77;1.02;;;;;;;;;;4167767;28;20057;-48
2021/11/19 12:10:19;;;;;;;1.95;1.20;;;;;;;;;;4169844;28;20060;-43
2021/11/19 12:12:44;;;;;;;2.30;0.98;;;;;;;;;;4165449;28;20057;-49
2021/11/19 12:14:57;;;;;;;3.30;0.93;;;;;;;;;;4148171;28;20054;-44
2021/11/19 12:16:59;;;;;;;3.25;0.88;;;;;;;;;;4148464;28;20061;-46
2021/11/19 12:19:36;;;;;;;3.13;1.23;;;;;;;;;;4165939;28;20564;-44
2021/11/19 12:22:01;;;;;;;2.70;0.80;;;;;;;;;;4166347;28;20353;-44
2021/11/19 12:24:07;;;;;;;2.50;0.80;;;;;;;;;;4166594;28;20072;-49
2021/11/19 12:26:45;;;;;;;2.17;0.90;;;;;;;;;;4149669;28;20076;-45
2021/11/19 12:28:53;;;;;;;3.63;0.73;;;;;;;;;;4167740;28;20102;-52
2021/11/19 12:30:58;;;;;;;2.80;1.05;;;;;;;;;;4153273;28;20065;-45
2021/11/19 12:33:09;;;;;;;2.28;1.08;;;;;;;;;;4145159;28;20058;-48
2021/11/19 12:35:14;;;;;;;1.33;0.45;;;;;;;;;;4146562;28;20054;-46
2021/11/19 12:37:29;;;;;;;2.25;0.80;;;;;;;;;;4169458;28;20060;-45
2021/11/19 12:39:34;;;;;;;0.90;0.45;;;;;;;;;;4150797;28;20066;-49
2021/11/19 12:41:42;;;;;;;2.55;1.05;;;;;;;;;;4156558;28;20200;-45
2021/11/19 12:43:52;;;;;;;3.47;0.75;;;;;;;;;;4155691;28;20477;-47
2021/11/19 12:45:59;;;;;;;1.33;0.70;;;;;;;;;;4172514;28;20052;-47
2021/11/19 12:48:22;;;;;;;1.45;0.70;;;;;;;;;;4165290;28;20473;-47
2021/11/19 12:50:36;;;;;;;1.58;0.93;;;;;;;;;;4157434;28;20107;-48
2021/11/19 12:52:53;;;;;;;2.38;0.77;;;;;;;;;;4153507;28;20429;-48